Time;durP1;ratioP1;P1;durP2;ratioP2;P2;SDS_P1;SDS_P2;PMS_P1;PMS_P2;Temp;Humidity;BMP_temperature;BMP_pressure;BME280_temperature;BME280_humidity;BME280_pressure;Samples;Min_cycle;Max_cycle;Signal;HPM_P1;HPM_P2
2022/04/07 00:02:05;;;;;;;0.50;0.20;;;9.20;99.90;;;;;;5033243;28;20065;-69
2022/04/07 00:04:31;;;;;;;0.43;0.30;;;9.30;99.90;;;;;;5033254;28;20069;-69
2022/04/07 00:06:57;;;;;;;0.40;0.30;;;9.20;99.90;;;;;;5033193;28;20041;-69
2022/04/07 00:09:23;;;;;;;2.05;0.57;;;9.20;99.90;;;;;;5033069;28;20041;-69
2022/04/07 00:11:48;;;;;;;1.13;0.55;;;9.10;99.90;;;;;;5033089;28;20401;-69
2022/04/07 00:14:14;;;;;;;1.02;0.38;;;9.10;99.90;;;;;;5033319;28;20056;-69
2022/04/07 00:16:40;;;;;;;0.57;0.40;;;9.10;99.90;;;;;;5033067;28;20061;-69
2022/04/07 00:19:06;;;;;;;0.73;0.47;;;9.10;99.90;;;;;;5032921;28;20040;-69
2022/04/07 00:21:40;;;;;;;0.82;0.50;;;9.10;99.90;;;;;;5032848;28;20064;-69
2022/04/07 00:24:07;;;;;;;0.95;0.38;;;9.10;99.90;;;;;;5032758;28;20090;-69
2022/04/07 00:26:35;;;;;;;2.78;1.15;;;9.10;99.90;;;;;;5032924;28;20540;-69
2022/04/07 00:29:01;;;;;;;0.98;0.57;;;9.00;99.90;;;;;;5032711;28;20041;-69
2022/04/07 00:31:26;;;;;;;0.90;0.45;;;8.80;99.90;;;;;;5032709;28;20038;-69
2022/04/07 00:33:52;;;;;;;9.32;2.83;;;8.90;99.90;;;;;;5015293;28;20047;-69
2022/04/07 00:36:18;;;;;;;9.82;2.67;;;8.90;99.90;;;;;;5032738;28;20053;-68
2022/04/07 00:38:44;;;;;;;2.75;0.50;;;9.00;99.90;;;;;;5032822;28;20037;-68
2022/04/07 00:41:10;;;;;;;11.02;3.17;;;9.00;99.90;;;;;;5033167;28;20370;-69
2022/04/07 00:43:37;;;;;;;5.93;2.13;;;9.00;99.90;;;;;;5032767;28;20037;-69
2022/04/07 00:46:04;;;;;;;37.40;10.93;;;9.00;99.90;;;;;;5032883;28;20041;-69
2022/04/07 00:48:30;;;;;;;39.50;10.57;;;9.00;99.90;;;;;;5032491;28;20512;-69
2022/04/07 00:50:57;;;;;;;3.78;1.13;;;9.00;99.90;;;;;;5032397;28;20061;-69
2022/04/07 00:53:24;;;;;;;1.67;0.85;;;9.00;99.90;;;;;;5032256;28;20080;-70
2022/04/07 00:55:53;;;;;;;3.03;1.10;;;9.00;99.90;;;;;;5032241;28;20045;-70
2022/04/07 00:58:21;;;;;;;18.20;6.43;;;9.10;99.90;;;;;;5032543;28;20128;-69
2022/04/07 01:00:47;;;;;;;5.13;1.50;;;9.00;99.90;;;;;;5032658;28;20041;-70
2022/04/07 01:03:13;;;;;;;1.73;1.10;;;9.10;99.90;;;;;;5032649;28;20036;-70
2022/04/07 01:05:39;;;;;;;15.65;5.95;;;9.00;99.90;;;;;;5032585;28;20049;-69
2022/04/07 01:08:09;;;;;;;16.10;5.18;;;8.90;99.90;;;;;;5032249;28;20079;-69
2022/04/07 01:10:35;;;;;;;9.47;3.63;;;8.90;99.90;;;;;;5032008;28;20041;-68
2022/04/07 01:13:01;;;;;;;2.28;0.90;;;8.90;99.90;;;;;;5035048;28;20272;-69
2022/04/07 01:15:27;;;;;;;2.72;0.60;;;9.00;99.90;;;;;;5036120;28;20034;-69
2022/04/07 01:17:52;;;;;;;0.40;0.28;;;9.00;99.90;;;;;;5036136;28;20033;-69
2022/04/07 01:20:18;;;;;;;0.40;0.35;;;9.00;99.90;;;;;;5036063;28;20037;-69
2022/04/07 01:22:46;;;;;;;0.47;0.35;;;9.00;99.90;;;;;;5036208;28;20048;-69
2022/04/07 01:25:13;;;;;;;1.83;1.00;;;9.10;99.90;;;;;;5036021;28;20029;-69
2022/04/07 01:27:39;;;;;;;2.03;1.05;;;9.10;99.90;;;;;;5035915;28;20044;-69
2022/04/07 01:30:08;;;;;;;1.90;0.70;;;9.10;99.90;;;;;;5035862;28;20555;-69
2022/04/07 01:32:46;;;;;;;1.05;0.43;;;9.10;99.90;;;;;;5035812;28;20044;-69
2022/04/07 01:35:13;;;;;;;0.43;0.20;;;9.10;99.90;;;;;;5053485;28;20040;-69
2022/04/07 01:37:42;;;;;;;0.35;0.28;;;9.10;99.90;;;;;;5055672;28;20057;-70
2022/04/07 01:40:15;;;;;;;0.68;0.40;;;9.20;99.90;;;;;;5055453;28;20593;-69
2022/04/07 01:42:40;;;;;;;1.00;0.50;;;9.20;99.90;;;;;;5055771;28;20120;-69
2022/04/07 01:45:07;;;;;;;2.08;0.95;;;9.30;99.90;;;;;;5055474;28;20126;-70
2022/04/07 01:47:35;;;;;;;0.75;0.40;;;9.30;99.90;;;;;;5055559;28;20072;-69
2022/04/07 01:50:06;;;;;;;1.05;0.60;;;9.30;99.90;;;;;;5055499;28;20493;-70
2022/04/07 01:52:33;;;;;;;0.65;0.43;;;9.30;99.90;;;;;;5055724;28;20072;-69
2022/04/07 01:55:00;;;;;;;1.10;0.50;;;9.30;99.90;;;;;;5055322;28;20036;-69
2022/04/07 01:57:26;;;;;;;0.50;0.30;;;9.30;99.90;;;;;;5055224;28;20055;-69
2022/04/07 01:59:53;;;;;;;0.43;0.22;;;9.30;99.90;;;;;;5055304;28;20040;-69
2022/04/07 02:02:23;;;;;;;0.40;0.20;;;9.20;99.90;;;;;;5048074;28;20148;-70
2022/04/07 02:04:56;;;;;;;0.60;0.20;;;9.30;99.90;;;;;;5032945;28;20045;-69
2022/04/07 02:07:22;;;;;;;0.80;0.20;;;9.20;99.90;;;;;;5036371;28;20029;-69
2022/04/07 02:09:48;;;;;;;0.73;0.20;;;9.20;99.90;;;;;;5035353;28;20073;-69
2022/04/07 02:12:14;;;;;;;0.30;0.30;;;9.30;99.90;;;;;;5035223;28;20084;-69
2022/04/07 02:14:40;;;;;;;0.30;0.30;;;9.30;99.90;;;;;;5035024;28;20397;-70
2022/04/07 02:17:06;;;;;;;0.45;0.40;;;9.20;99.90;;;;;;5035036;28;20041;-68
2022/04/07 02:19:32;;;;;;;0.70;0.22;;;9.20;99.90;;;;;;5034981;28;20045;-70
2022/04/07 02:21:58;;;;;;;0.28;0.20;;;9.20;99.90;;;;;;5034925;28;20041;-69
2022/04/07 02:24:24;;;;;;;0.32;0.20;;;9.20;99.90;;;;;;5033686;28;20447;-70
2022/04/07 02:26:50;;;;;;;1.10;0.10;;;9.20;99.90;;;;;;5034884;28;20033;-69
2022/04/07 02:29:15;;;;;;;1.27;0.60;;;9.20;99.90;;;;;;5034920;28;20033;-69
2022/04/07 02:31:41;;;;;;;2.38;0.40;;;9.20;99.90;;;;;;5034847;28;20045;-69
2022/04/07 02:34:07;;;;;;;0.60;0.30;;;9.30;99.90;;;;;;5034848;28;20044;-69
2022/04/07 02:36:32;;;;;;;0.25;0.20;;;9.30;99.90;;;;;;5034805;28;20041;-69
2022/04/07 02:38:59;;;;;;;0.43;0.20;;;9.30;99.90;;;;;;5034678;28;20036;-69
2022/04/07 02:41:25;;;;;;;0.22;0.10;;;9.30;99.90;;;;;;5034498;28;20114;-69
2022/04/07 02:43:51;;;;;;;0.20;0.20;;;9.40;99.90;;;;;;5034335;28;20072;-69
2022/04/07 02:46:17;;;;;;;0.13;0.13;;;9.40;99.90;;;;;;5033939;28;20033;-69
2022/04/07 02:48:42;;;;;;;0.30;0.20;;;9.40;99.90;;;;;;5034572;28;20072;-68
2022/04/07 02:51:08;;;;;;;0.20;0.20;;;9.40;99.90;;;;;;5034572;28;20100;-69
2022/04/07 02:53:34;;;;;;;0.13;0.10;;;9.40;99.90;;;;;;5034492;28;20045;-69
2022/04/07 02:56:00;;;;;;;2.33;0.52;;;9.40;99.90;;;;;;5034408;28;20077;-69
2022/04/07 02:58:25;;;;;;;1.08;0.40;;;9.40;99.90;;;;;;5034256;28;20053;-69
2022/04/07 03:00:51;;;;;;;1.20;0.13;;;9.40;99.90;;;;;;5034414;28;20042;-69
2022/04/07 03:03:17;;;;;;;0.30;0.20;;;9.40;99.90;;;;;;5034338;28;20072;-69
2022/04/07 03:05:43;;;;;;;0.73;0.20;;;9.40;99.90;;;;;;5034267;28;20080;-69
2022/04/07 03:08:08;;;;;;;4.35;0.40;;;9.40;99.90;;;;;;5034092;28;20041;-69
2022/04/07 03:10:34;;;;;;;0.30;0.20;;;9.40;99.90;;;;;;5033899;28;20095;-69
2022/04/07 03:13:00;;;;;;;0.68;0.30;;;9.40;99.90;;;;;;5033903;28;20048;-69
2022/04/07 03:15:25;;;;;;;0.50;0.20;;;9.30;99.90;;;;;;5034149;28;20072;-69
2022/04/07 03:17:51;;;;;;;0.30;0.20;;;9.40;99.90;;;;;;5033887;28;20597;-69
2022/04/07 03:20:17;;;;;;;1.70;0.25;;;9.30;99.90;;;;;;5033670;28;20046;-69
2022/04/07 03:22:43;;;;;;;0.75;0.30;;;9.30;99.90;;;;;;5033642;28;20231;-69
2022/04/07 03:25:09;;;;;;;1.08;0.70;;;9.30;99.90;;;;;;5033694;28;20128;-68
2022/04/07 03:27:35;;;;;;;4.25;2.15;;;9.30;99.90;;;;;;5033626;28;20128;-69
2022/04/07 03:30:00;;;;;;;9.52;5.28;;;9.30;99.90;;;;;;5033823;28;20528;-69
2022/04/07 03:32:26;;;;;;;12.88;6.25;;;9.40;99.90;;;;;;5033842;28;20498;-69
2022/04/07 03:34:52;;;;;;;9.32;4.90;;;9.40;99.90;;;;;;5033152;28;20056;-69
2022/04/07 03:37:18;;;;;;;6.32;3.08;;;9.40;99.90;;;;;;5033542;28;20531;-69
2022/04/07 03:39:44;;;;;;;5.43;2.80;;;9.40;99.90;;;;;;5015945;28;20044;-69
2022/04/07 03:42:10;;;;;;;3.38;1.70;;;9.40;99.90;;;;;;5033572;28;20033;-69
2022/04/07 03:44:35;;;;;;;2.05;1.10;;;9.40;99.90;;;;;;5033318;28;20052;-68
2022/04/07 03:47:01;;;;;;;6.07;2.80;;;9.40;99.90;;;;;;5033116;28;20072;-69
2022/04/07 03:49:27;;;;;;;1.55;0.77;;;9.40;99.90;;;;;;5033187;28;20458;-69
2022/04/07 03:51:53;;;;;;;7.05;4.13;;;9.40;99.90;;;;;;5033397;28;20057;-69
2022/04/07 03:54:19;;;;;;;7.95;3.60;;;9.40;99.90;;;;;;5033411;28;20547;-69
2022/04/07 03:56:47;;;;;;;8.75;4.70;;;9.40;99.90;;;;;;5033215;28;20072;-69
2022/04/07 03:59:13;;;;;;;6.65;3.55;;;9.40;99.90;;;;;;5033012;28;20037;-68
2022/04/07 04:01:44;;;;;;;7.15;2.75;;;9.40;99.90;;;;;;5032893;28;20497;-69
2022/04/07 04:04:09;;;;;;;;;;;9.40;99.90;;;;;;5033703;28;20048;-68
2022/04/07 04:06:35;;;;;;;3.22;1.90;;;9.30;99.90;;;;;;5033184;28;20353;-70
2022/04/07 04:09:02;;;;;;;3.90;2.03;;;9.20;99.90;;;;;;5033006;28;20444;-69
2022/04/07 04:11:27;;;;;;;2.42;1.00;;;9.20;99.90;;;;;;5032970;28;20033;-68
2022/04/07 04:13:53;;;;;;;5.40;2.80;;;9.10;99.90;;;;;;5032765;28;20045;-68
2022/04/07 04:16:19;;;;;;;5.60;2.20;;;9.10;99.90;;;;;;5032531;28;20049;-69
2022/04/07 04:18:45;;;;;;;2.10;1.42;;;9.10;99.90;;;;;;5032698;28;20052;-68
2022/04/07 04:21:11;;;;;;;1.73;1.20;;;9.10;99.90;;;;;;5032897;28;20041;-69
2022/04/07 04:23:38;;;;;;;3.08;2.05;;;9.00;99.90;;;;;;5032707;28;20157;-68
2022/04/07 04:26:04;;;;;;;2.63;1.60;;;9.00;99.90;;;;;;5032674;28;20045;-69
2022/04/07 04:28:30;;;;;;;3.33;1.65;;;9.00;99.90;;;;;;5032955;28;20114;-69
2022/04/07 04:30:56;;;;;;;3.45;2.55;;;9.00;99.90;;;;;;5032997;28;20390;-68
2022/04/07 04:33:21;;;;;;;1.80;1.33;;;8.90;99.90;;;;;;5032744;28;20073;-69
2022/04/07 04:35:47;;;;;;;2.20;1.00;;;8.90;99.90;;;;;;5014897;28;20037;-69
2022/04/07 04:38:13;;;;;;;1.20;0.82;;;8.90;99.90;;;;;;5032661;28;20048;-68
2022/04/07 04:40:39;;;;;;;5.50;2.50;;;9.00;99.90;;;;;;5032758;28;20084;-70
2022/04/07 04:43:04;;;;;;;3.63;1.90;;;9.00;99.90;;;;;;5032732;28;20053;-70
2022/04/07 04:45:30;;;;;;;5.68;1.95;;;8.90;99.90;;;;;;5032908;28;20068;-70
2022/04/07 04:47:56;;;;;;;2.30;1.88;;;8.90;99.90;;;;;;5035666;28;20531;-70
2022/04/07 04:50:22;;;;;;;2.08;1.65;;;8.90;99.90;;;;;;5036778;28;20128;-69
2022/04/07 04:52:48;;;;;;;1.80;1.17;;;8.90;99.90;;;;;;5036862;28;20075;-69
2022/04/07 04:55:13;;;;;;;4.78;1.55;;;8.90;99.90;;;;;;5036274;28;20452;-68
2022/04/07 04:57:39;;;;;;;1.80;1.20;;;9.00;99.90;;;;;;5035036;28;20492;-68
2022/04/07 05:00:06;;;;;;;2.15;1.15;;;8.90;99.90;;;;;;5036249;28;20037;-68
2022/04/07 05:02:32;;;;;;;2.97;1.50;;;9.00;99.90;;;;;;5037167;28;20079;-68
2022/04/07 05:04:58;;;;;;;1.85;1.20;;;9.00;99.90;;;;;;5038298;28;20081;-68
2022/04/07 05:07:24;;;;;;;2.10;1.30;;;9.00;99.90;;;;;;5036436;28;20029;-68
2022/04/07 05:09:55;;;;;;;4.57;1.67;;;9.00;99.90;;;;;;5036453;28;20045;-68
2022/04/07 05:12:21;;;;;;;2.67;1.52;;;8.90;99.90;;;;;;5035323;28;20120;-69
2022/04/07 05:14:47;;;;;;;4.65;1.42;;;8.90;99.90;;;;;;5036184;28;20833;-67
2022/04/07 05:17:12;;;;;;;1.80;1.20;;;8.90;99.90;;;;;;5036317;28;20049;-69
2022/04/07 05:19:38;;;;;;;2.63;1.33;;;8.90;99.90;;;;;;5036822;28;20041;-68
2022/04/07 05:22:05;;;;;;;1.20;0.90;;;8.90;99.90;;;;;;5037534;28;20088;-68
2022/04/07 05:24:31;;;;;;;4.07;1.48;;;8.90;99.90;;;;;;5036037;28;20455;-68
2022/04/07 05:26:56;;;;;;;2.08;1.33;;;8.90;99.90;;;;;;5035304;28;20037;-67
2022/04/07 05:29:22;;;;;;;2.03;1.30;;;8.90;99.90;;;;;;5035267;28;20041;-67
2022/04/07 05:31:49;;;;;;;3.75;1.90;;;8.90;99.90;;;;;;5035038;28;20048;-67
2022/04/07 05:34:15;;;;;;;2.05;1.20;;;8.90;99.90;;;;;;5034273;28;20037;-67
2022/04/07 05:36:42;;;;;;;160.60;92.63;;;8.90;99.90;;;;;;5033732;28;20418;-67
2022/04/07 05:39:07;;;;;;;41.40;32.45;;;8.90;99.90;;;;;;5035106;28;20049;-67
2022/04/07 05:41:33;;;;;;;8.93;7.55;;;9.00;99.90;;;;;;5035872;28;20045;-67
2022/04/07 05:43:59;;;;;;;3.78;2.92;;;9.00;99.90;;;;;;5035654;28;20452;-67
2022/04/07 05:46:25;;;;;;;1.80;1.40;;;9.00;99.90;;;;;;5035144;28;20461;-67
2022/04/07 05:48:50;;;;;;;1.77;1.00;;;9.00;99.90;;;;;;5035575;28;20119;-67
2022/04/07 05:51:16;;;;;;;1.42;1.00;;;9.00;99.90;;;;;;5034389;28;20129;-67
2022/04/07 05:53:42;;;;;;;1.30;1.02;;;9.00;99.90;;;;;;5035753;28;20483;-67
2022/04/07 05:56:08;;;;;;;1.75;1.10;;;9.00;99.90;;;;;;5035375;28;20048;-68
2022/04/07 05:58:34;;;;;;;1.70;0.82;;;9.00;99.90;;;;;;5035250;28;20049;-68
2022/04/07 06:00:59;;;;;;;2.28;1.10;;;9.00;99.90;;;;;;5035608;28;20041;-67
2022/04/07 06:03:25;;;;;;;2.35;1.23;;;9.00;99.90;;;;;;5034726;28;20470;-67
2022/04/07 06:05:53;;;;;;;1.20;1.05;;;9.00;99.90;;;;;;5030170;28;20104;-67
2022/04/07 06:08:21;;;;;;;2.47;0.73;;;9.00;99.90;;;;;;5032075;28;20049;-67
2022/04/07 06:10:48;;;;;;;2.47;1.25;;;9.00;99.90;;;;;;5032100;28;20037;-67
2022/04/07 06:13:14;;;;;;;1.05;0.82;;;9.10;99.90;;;;;;5034999;28;20037;-67
2022/04/07 06:15:41;;;;;;;2.33;0.90;;;9.10;99.90;;;;;;5034212;28;20513;-67
2022/04/07 06:18:07;;;;;;;2.03;0.80;;;9.10;99.90;;;;;;5033949;28;20173;-67
2022/04/07 06:20:33;;;;;;;1.83;1.00;;;9.10;99.90;;;;;;5034050;28;20041;-67
2022/04/07 06:23:00;;;;;;;2.08;1.20;;;9.20;99.90;;;;;;5034231;28;20053;-67
2022/04/07 06:25:26;;;;;;;4.50;3.40;;;9.20;99.90;;;;;;5034719;28;20037;-67
2022/04/07 06:27:52;;;;;;;4.90;2.33;;;9.20;99.90;;;;;;5033313;28;20124;-67
2022/04/07 06:30:20;;;;;;;2.28;1.63;;;9.20;99.90;;;;;;5032887;28;20076;-67
2022/04/07 06:32:47;;;;;;;3.60;1.63;;;9.20;99.90;;;;;;5034722;28;20046;-67
2022/04/07 06:35:15;;;;;;;2.28;1.00;;;9.30;99.90;;;;;;5034943;28;20048;-67
2022/04/07 06:37:52;;;;;;;2.15;0.90;;;9.30;99.90;;;;;;5034013;28;20144;-67
2022/04/07 06:40:22;;;;;;;2.30;0.95;;;9.40;99.90;;;;;;5034539;28;20524;-67
2022/04/07 06:42:49;;;;;;;5.65;2.00;;;9.40;99.90;;;;;;5034805;28;20064;-67
2022/04/07 06:45:15;;;;;;;1.83;0.82;;;9.50;99.90;;;;;;5034477;28;20030;-67
2022/04/07 06:47:42;;;;;;;1.23;0.70;;;9.40;99.90;;;;;;5034845;28;20049;-67
2022/04/07 06:50:10;;;;;;;2.20;1.10;;;9.40;99.90;;;;;;5053534;28;20049;-67
2022/04/07 06:52:36;;;;;;;5.72;2.33;;;9.50;99.90;;;;;;5054586;28;20047;-67
2022/04/07 06:55:03;;;;;;;45.67;10.00;;;9.50;99.90;;;;;;5054349;28;20048;-67
2022/04/07 06:57:29;;;;;;;49.97;16.10;;;9.50;99.90;;;;;;5054222;28;20055;-67
2022/04/07 06:59:55;;;;;;;10.32;4.05;;;9.60;99.90;;;;;;5054224;28;20112;-67
2022/04/07 07:02:21;;;;;;;13.02;5.72;;;9.60;99.90;;;;;;5054225;28;20123;-67
2022/04/07 07:04:47;;;;;;;7.70;3.72;;;9.70;99.90;;;;;;5054254;28;20449;-67
2022/04/07 07:07:13;;;;;;;12.68;5.72;;;9.70;99.90;;;;;;5054271;28;20045;-67
2022/04/07 07:09:39;;;;;;;17.27;8.02;;;9.80;99.90;;;;;;5053545;28;20091;-67
2022/04/07 07:12:05;;;;;;;29.15;11.55;;;9.80;99.90;;;;;;5054205;28;20132;-67
2022/04/07 07:14:31;;;;;;;10.18;4.82;;;9.80;99.90;;;;;;5053993;28;20585;-67
2022/04/07 07:16:56;;;;;;;3.55;1.38;;;9.90;99.90;;;;;;5054029;28;20118;-67
2022/04/07 07:19:28;;;;;;;16.95;7.15;;;10.00;99.90;;;;;;5054082;28;20072;-67
2022/04/07 07:21:54;;;;;;;8.65;3.63;;;10.10;99.90;;;;;;5054007;28;20044;-67
2022/04/07 07:24:20;;;;;;;6.90;3.10;;;10.10;99.90;;;;;;5053965;28;20508;-67
2022/04/07 07:26:46;;;;;;;3.45;1.52;;;10.20;99.90;;;;;;5054077;28;20033;-67
2022/04/07 07:29:12;;;;;;;2.30;1.15;;;10.20;99.90;;;;;;5053632;28;20053;-67
2022/04/07 07:31:38;;;;;;;1.27;0.40;;;10.30;99.90;;;;;;5053653;28;20045;-67
2022/04/07 07:34:03;;;;;;;2.63;0.68;;;10.30;99.90;;;;;;5053517;28;20392;-67
2022/04/07 07:36:32;;;;;;;1.00;0.45;;;10.30;99.90;;;;;;5053404;28;20382;-67
2022/04/07 07:38:58;;;;;;;0.77;0.47;;;10.40;99.90;;;;;;5053666;28;20523;-67
2022/04/07 07:41:24;;;;;;;2.78;0.55;;;10.50;99.90;;;;;;5053640;28;20037;-67
2022/04/07 07:43:50;;;;;;;3.03;0.47;;;10.60;99.90;;;;;;5053397;28;20508;-67
2022/04/07 07:46:16;;;;;;;2.10;0.30;;;10.70;99.90;;;;;;5053303;28;20044;-66
2022/04/07 07:48:42;;;;;;;1.08;0.43;;;10.80;99.90;;;;;;5053398;28;20048;-67
2022/04/07 07:51:08;;;;;;;1.27;0.63;;;10.90;99.90;;;;;;5053435;28;20041;-67
2022/04/07 07:53:34;;;;;;;2.40;0.50;;;10.90;99.90;;;;;;5053400;28;20045;-67
2022/04/07 07:56:00;;;;;;;1.27;0.60;;;11.00;99.90;;;;;;5048841;28;20076;-67
2022/04/07 07:58:25;;;;;;;3.80;0.60;;;11.00;99.90;;;;;;5033257;28;20041;-67
2022/04/07 08:00:52;;;;;;;1.45;0.43;;;11.00;99.90;;;;;;5033286;28;20044;-67
2022/04/07 08:03:17;;;;;;;9.77;2.08;;;11.00;99.90;;;;;;5033213;28;20037;-67
2022/04/07 08:05:43;;;;;;;1.58;0.50;;;11.00;99.90;;;;;;5033287;28;20033;-67
2022/04/07 08:08:11;;;;;;;1.45;0.70;;;11.00;99.90;;;;;;5033368;28;20567;-67
2022/04/07 08:10:36;;;;;;;11.43;3.88;;;11.00;99.90;;;;;;5033385;28;20385;-67
2022/04/07 08:13:02;;;;;;;2.33;0.73;;;11.10;99.90;;;;;;5033186;28;20045;-67
2022/04/07 08:15:29;;;;;;;3.78;1.45;;;11.00;99.90;;;;;;5019575;28;20059;-67
2022/04/07 08:17:54;;;;;;;2.05;0.82;;;11.10;99.90;;;;;;5033207;28;20059;-67
2022/04/07 08:20:20;;;;;;;6.32;0.95;;;11.10;99.90;;;;;;5033116;28;20029;-67
2022/04/07 08:22:46;;;;;;;3.08;0.70;;;11.10;99.90;;;;;;5033139;28;20041;-67
2022/04/07 08:25:12;;;;;;;10.57;3.33;;;11.20;99.90;;;;;;5033150;28;20040;-67
2022/04/07 08:27:38;;;;;;;0.77;0.35;;;11.20;99.90;;;;;;5032973;28;20048;-67
2022/04/07 08:30:04;;;;;;;3.17;1.10;;;11.20;99.90;;;;;;5032914;28;20144;-67
2022/04/07 08:32:33;;;;;;;2.95;0.70;;;11.20;99.90;;;;;;5032967;28;20583;-67
2022/04/07 08:35:03;;;;;;;0.90;0.52;;;11.20;99.90;;;;;;5032893;28;20072;-67
2022/04/07 08:37:29;;;;;;;1.00;0.63;;;11.10;99.90;;;;;;5032865;28;20041;-68
2022/04/07 08:39:55;;;;;;;6.82;1.42;;;11.20;99.90;;;;;;5032708;28;20041;-67
2022/04/07 08:42:25;;;;;;;6.63;2.10;;;11.20;99.90;;;;;;5032797;28;20558;-67
2022/04/07 08:44:51;;;;;;;1.55;0.50;;;11.20;99.90;;;;;;5032954;28;20095;-67
2022/04/07 08:47:20;;;;;;;2.05;0.40;;;11.10;99.90;;;;;;5032892;28;20037;-67
2022/04/07 08:49:48;;;;;;;0.80;0.55;;;11.10;99.90;;;;;;5032807;28;20095;-67
2022/04/07 08:52:14;;;;;;;2.58;0.73;;;11.10;99.90;;;;;;5032788;28;20073;-67
2022/04/07 08:54:42;;;;;;;1.23;0.60;;;11.10;99.90;;;;;;5032707;28;20524;-67
2022/04/07 08:57:08;;;;;;;6.60;1.35;;;11.00;99.90;;;;;;5032599;28;20116;-67
2022/04/07 08:59:34;;;;;;;1.25;0.40;;;11.10;99.90;;;;;;5032804;28;20092;-67
2022/04/07 09:02:04;;;;;;;1.23;0.40;;;11.10;99.90;;;;;;5015154;28;20049;-67
2022/04/07 09:04:35;;;;;;;0.60;0.30;;;11.20;99.90;;;;;;5032799;28;20557;-67
2022/04/07 09:07:02;;;;;;;2.67;0.52;;;11.10;99.90;;;;;;5032645;28;20046;-67
2022/04/07 09:09:31;;;;;;;2.42;0.88;;;11.20;99.90;;;;;;5032895;28;20045;-67
2022/04/07 09:11:57;;;;;;;2.15;0.30;;;11.20;99.90;;;;;;5032581;28;20065;-67
2022/04/07 09:14:23;;;;;;;2.50;0.70;;;11.20;99.90;;;;;;5032635;28;20119;-67
2022/04/07 09:16:55;;;;;;;1.80;0.50;;;11.30;99.90;;;;;;5032630;28;20096;-67
2022/04/07 09:19:22;;;;;;;1.75;0.70;;;11.30;99.90;;;;;;5032594;28;20056;-67
2022/04/07 09:22:03;;;;;;;1.45;0.95;;;11.30;99.90;;;;;;5032504;28;20038;-67
2022/04/07 09:24:29;;;;;;;;;;;11.30;99.90;;;;;;5032813;28;20048;-68
2022/04/07 09:26:54;;;;;;;5.00;1.50;;;11.40;99.90;;;;;;5032229;28;19908;-68
2022/04/07 09:29:20;;;;;;;2.63;1.00;;;11.40;99.90;;;;;;5032382;28;20041;-67
2022/04/07 09:31:53;;;;;;;1.95;0.90;;;11.50;99.90;;;;;;5032372;28;20520;-67
2022/04/07 09:34:32;;;;;;;2.70;0.73;;;11.60;99.90;;;;;;5035504;28;20043;-67
2022/04/07 09:37:08;;;;;;;1.23;0.73;;;11.70;99.90;;;;;;5036098;28;20084;-67
2022/04/07 09:39:36;;;;;;;8.52;0.88;;;11.70;99.90;;;;;;5035902;28;20050;-67
2022/04/07 09:42:23;;;;;;;1.92;1.00;;;11.80;99.90;;;;;;5035745;28;20129;-68
2022/04/07 09:44:59;;;;;;;16.30;13.80;;;11.80;99.90;;;;;;5035863;28;20510;-68
2022/04/07 09:47:33;;;;;;;3.53;1.20;;;11.70;99.90;;;;;;5035957;28;20081;-67
2022/04/07 09:49:59;;;;;;;2.88;1.52;;;11.70;99.90;;;;;;5017883;28;20072;-67
2022/04/07 09:52:25;;;;;;;5.55;0.80;;;11.70;99.90;;;;;;5035672;28;20107;-67
2022/04/07 09:54:51;;;;;;;2.55;0.70;;;11.70;99.90;;;;;;5035721;28;20041;-67
2022/04/07 09:57:21;;;;;;;2.15;0.80;;;11.70;99.90;;;;;;5035539;28;20088;-68
2022/04/07 09:59:48;;;;;;;2.88;0.85;;;11.70;99.90;;;;;;5038062;28;20144;-67
2022/04/07 10:02:17;;;;;;;1.73;0.55;;;11.70;99.90;;;;;;5035562;28;20444;-68
2022/04/07 10:04:43;;;;;;;2.95;0.60;;;11.70;99.90;;;;;;5035471;28;20067;-68
2022/04/07 10:07:11;;;;;;;1.85;0.50;;;11.70;99.90;;;;;;5035434;28;20080;-67
2022/04/07 10:09:46;;;;;;;1.27;0.73;;;11.60;99.90;;;;;;5032277;28;20444;-67
2022/04/07 10:12:12;;;;;;;1.77;0.65;;;11.60;99.90;;;;;;5032988;28;20049;-67
2022/04/07 10:14:39;;;;;;;4.47;0.50;;;11.60;99.90;;;;;;5034855;28;20079;-67
2022/04/07 10:17:08;;;;;;;0.98;0.60;;;11.60;99.90;;;;;;5035030;28;20080;-68
2022/04/07 10:19:51;;;;;;;0.70;0.50;;;11.70;99.90;;;;;;5035305;28;20472;-67
2022/04/07 10:22:35;;;;;;;1.42;0.60;;;11.70;99.90;;;;;;5035202;28;20128;-67
2022/04/07 10:25:03;;;;;;;1.27;0.70;;;11.70;99.90;;;;;;5037400;28;20037;-67
2022/04/07 10:27:30;;;;;;;1.40;0.82;;;11.80;99.90;;;;;;5017061;28;20049;-67
2022/04/07 10:30:10;;;;;;;3.85;2.13;;;11.80;99.90;;;;;;5035045;28;20116;-67
2022/04/07 10:32:49;;;;;;;2.97;1.70;;;11.80;99.90;;;;;;5034980;28;20120;-67
2022/04/07 10:35:37;;;;;;;3.15;1.90;;;11.90;99.90;;;;;;5035033;28;20132;-68
2022/04/07 10:38:06;;;;;;;2.10;1.08;;;11.90;99.90;;;;;;5034863;28;20064;-67
2022/04/07 10:40:49;;;;;;;3.50;1.80;;;12.00;99.90;;;;;;5034856;28;20041;-67
2022/04/07 10:43:14;;;;;;;4.88;1.02;;;12.10;99.90;;;;;;5034718;28;20045;-67
2022/04/07 10:45:41;;;;;;;2.22;1.45;;;12.00;99.90;;;;;;5033466;28;20393;-68
2022/04/07 10:48:35;;;;;;;2.47;1.00;;;12.00;99.90;;;;;;5034486;28;20485;-68
2022/04/07 10:51:01;;;;;;;2.97;1.98;;;12.10;99.90;;;;;;5034791;28;20501;-67
2022/04/07 10:53:34;;;;;;;2.75;1.23;;;12.10;99.90;;;;;;5034565;28;20499;-67
2022/04/07 10:56:00;;;;;;;1.83;1.15;;;12.00;99.90;;;;;;5034591;28;20053;-67
2022/04/07 10:58:44;;;;;;;1.02;0.70;;;12.10;99.90;;;;;;5034804;28;20454;-67
2022/04/07 11:01:15;;;;;;;2.25;0.70;;;12.00;99.90;;;;;;5034360;28;20037;-67
2022/04/07 11:04:01;;;;;;;1.60;0.63;;;12.10;99.90;;;;;;5034300;28;20393;-67
2022/04/07 11:06:27;;;;;;;2.83;0.70;;;12.10;99.90;;;;;;5034094;28;20493;-67
2022/04/07 11:09:11;;;;;;;0.98;0.70;;;12.00;99.90;;;;;;5034288;28;20056;-67
2022/04/07 11:11:51;;;;;;;1.85;0.80;;;12.10;99.90;;;;;;5034240;28;20116;-67
2022/04/07 11:14:18;;;;;;;2.20;0.80;;;12.10;99.90;;;;;;5034107;28;20041;-68
2022/04/07 11:16:45;;;;;;;0.88;0.60;;;12.10;99.90;;;;;;5034078;28;20041;-67
2022/04/07 11:19:50;;;;;;;1.75;0.73;;;12.20;99.90;;;;;;5033801;28;20037;-67
2022/04/07 11:22:19;;;;;;;2.03;1.00;;;12.20;99.90;;;;;;5034039;28;20037;-67
2022/04/07 11:24:51;;;;;;;1.65;0.65;;;12.10;99.90;;;;;;5033797;28;20053;-67
2022/04/07 11:27:38;;;;;;;0.88;0.55;;;12.10;99.90;;;;;;5033805;28;20045;-67
2022/04/07 11:30:14;;;;;;;1.13;0.63;;;12.10;99.90;;;;;;5033976;28;20030;-67
2022/04/07 11:33:32;;;;;;;0.65;0.20;;;12.00;99.90;;;;;;5034192;28;20041;-68
2022/04/07 11:36:04;;;;;;;3.42;0.80;;;11.90;99.90;;;;;;4978514;28;20042;-67
2022/04/07 11:38:34;;;;;;;2.20;0.85;;;11.90;99.90;;;;;;5033675;28;20045;-68
2022/04/07 11:41:06;;;;;;;1.08;0.70;;;11.90;99.90;;;;;;5033713;28;20528;-67
2022/04/07 11:43:34;;;;;;;1.65;0.90;;;11.80;99.90;;;;;;5015985;28;20572;-67
2022/04/07 11:46:00;;;;;;;3.50;1.80;;;11.70;99.90;;;;;;5033904;28;20440;-67
2022/04/07 11:48:33;;;;;;;5.47;1.25;;;11.70;99.90;;;;;;5033450;28;20045;-68
2022/04/07 11:51:00;;;;;;;0.85;0.52;;;11.70;99.90;;;;;;5033372;28;20052;-67
2022/04/07 11:53:27;;;;;;;0.80;0.57;;;11.80;99.90;;;;;;5033360;28;20061;-68
2022/04/07 11:55:53;;;;;;;0.47;0.20;;;11.90;99.90;;;;;;5032901;28;20456;-67
2022/04/07 11:58:19;;;;;;;1.17;0.63;;;12.00;99.90;;;;;;5033346;28;20045;-67
2022/04/07 12:00:46;;;;;;;0.70;0.32;;;12.10;99.90;;;;;;5033349;28;20071;-67
2022/04/07 12:03:12;;;;;;;0.73;0.47;;;12.10;99.90;;;;;;5033248;28;20038;-67
2022/04/07 12:05:40;;;;;;;2.63;1.50;;;12.10;99.90;;;;;;5033324;28;20051;-68
2022/04/07 12:08:11;;;;;;;0.85;0.40;;;12.10;99.90;;;;;;5033349;28;20550;-67
2022/04/07 12:10:39;;;;;;;0.80;0.20;;;12.00;99.90;;;;;;5033239;28;20513;-68
2022/04/07 12:13:06;;;;;;;0.77;0.32;;;11.90;99.90;;;;;;5033231;28;20041;-68
2022/04/07 12:15:34;;;;;;;3.33;0.82;;;11.80;99.90;;;;;;5032979;28;20071;-68
2022/04/07 12:18:06;;;;;;;1.02;0.68;;;11.80;99.90;;;;;;5032885;28;20053;-68
2022/04/07 12:20:33;;;;;;;2.05;0.50;;;11.70;99.90;;;;;;5033150;28;20128;-68
2022/04/07 12:23:13;;;;;;;2.60;0.90;;;11.70;99.90;;;;;;5033070;28;20050;-67
2022/04/07 12:25:41;;;;;;;0.93;0.52;;;11.70;99.90;;;;;;5032829;28;20497;-67
2022/04/07 12:28:17;;;;;;;1.30;0.73;;;11.60;99.90;;;;;;5032815;28;20040;-68
2022/04/07 12:30:46;;;;;;;4.00;1.70;;;11.60;99.90;;;;;;5033101;28;20048;-69
2022/04/07 12:33:32;;;;;;;4.72;1.23;;;11.60;99.90;;;;;;5032892;28;20041;-68
2022/04/07 12:35:58;;;;;;;1.50;0.82;;;11.60;99.90;;;;;;5021817;28;20586;-69
2022/04/07 12:38:24;;;;;;;1.35;0.77;;;11.60;99.90;;;;;;5032814;28;20045;-68
2022/04/07 12:40:50;;;;;;;1.70;0.50;;;11.60;99.90;;;;;;5032879;28;20030;-68
2022/04/07 12:43:15;;;;;;;0.30;0.28;;;11.60;99.90;;;;;;5032913;28;20045;-69
2022/04/07 12:46:08;;;;;;;0.63;0.40;;;11.60;99.90;;;;;;5032989;28;20419;-69
2022/04/07 12:48:35;;;;;;;0.73;0.20;;;11.60;99.90;;;;;;5030523;28;20076;-69
2022/04/07 12:51:20;;;;;;;3.78;0.20;;;11.60;99.90;;;;;;5032659;28;20033;-69
2022/04/07 12:53:46;;;;;;;0.82;0.47;;;11.60;99.90;;;;;;5032798;28;20050;-68
2022/04/07 12:56:19;;;;;;;0.50;0.20;;;11.60;99.90;;;;;;5032604;28;20103;-68
2022/04/07 12:58:45;;;;;;;0.75;0.30;;;11.50;99.90;;;;;;5032611;28;20374;-68